createdAt,value
2023-03-30T00:02:10.115Z,5.35
2023-03-30T00:04:42.466Z,5.36
2023-03-30T00:07:11.071Z,5.36
2023-03-30T00:09:41.899Z,5.36
2023-03-30T00:12:09.912Z,5.35
2023-03-30T00:14:37.975Z,5.35
2023-03-30T00:17:06.416Z,5.36
2023-03-30T00:19:37.077Z,5.37
2023-03-30T00:22:06.013Z,5.38
2023-03-30T00:24:34.085Z,5.38
2023-03-30T00:27:02.739Z,5.38
2023-03-30T00:29:30.858Z,5.37
2023-03-30T00:32:00.691Z,5.38
2023-03-30T00:34:28.994Z,5.37
2023-03-30T00:36:57.577Z,5.35
2023-03-30T00:39:26.122Z,5.35
2023-03-30T00:41:54.221Z,5.36
2023-03-30T00:44:58.776Z,5.36
2023-03-30T00:47:28.415Z,5.35
2023-03-30T00:49:58.052Z,5.33
2023-03-30T00:52:27.902Z,5.33
2023-03-30T00:54:57.641Z,5.32
2023-03-30T00:57:28.034Z,5.32
2023-03-30T00:59:56.975Z,5.33
2023-03-30T01:02:25.351Z,5.33
2023-03-30T01:04:57.034Z,5.32
2023-03-30T01:07:26.179Z,5.33
2023-03-30T01:09:55.421Z,5.34
2023-03-30T01:12:23.615Z,5.33
2023-03-30T01:14:53.035Z,5.33
2023-03-30T01:17:29.092Z,5.34
2023-03-30T01:20:33.339Z,5.34
2023-03-30T01:23:30.445Z,5.35
2023-03-30T01:26:48.314Z,5.33
2023-03-30T01:29:36.020Z,5.32
2023-03-30T01:32:44.586Z,5.31
2023-03-30T01:35:43.442Z,5.31
2023-03-30T01:38:52.592Z,5.32
2023-03-30T01:41:31.096Z,5.35
2023-03-30T01:44:05.861Z,5.36
2023-03-30T01:46:40.176Z,5.35
2023-03-30T01:49:12.986Z,5.34
2023-03-30T01:51:47.648Z,5.32
2023-03-30T01:54:20.562Z,5.31
2023-03-30T01:56:51.616Z,5.30
2023-03-30T01:59:25.824Z,5.29
2023-03-30T02:02:02.021Z,5.30
2023-03-30T02:04:35.920Z,5.29
2023-03-30T02:07:09.584Z,5.29
2023-03-30T02:09:40.409Z,5.27
2023-03-30T02:12:10.626Z,5.26
2023-03-30T02:14:41.563Z,5.25
2023-03-30T02:17:15.547Z,5.25
2023-03-30T02:19:45.920Z,5.27
2023-03-30T02:22:15.713Z,5.28
2023-03-30T02:24:45.630Z,5.28
2023-03-30T02:27:14.096Z,5.27
2023-03-30T02:29:44.521Z,5.27
2023-03-30T02:32:19.039Z,5.27
2023-03-30T02:35:04.505Z,5.29
2023-03-30T02:38:00.986Z,5.30
2023-03-30T02:40:44.366Z,5.30
2023-03-30T02:43:26.146Z,5.31
2023-03-30T02:46:09.354Z,5.33
2023-03-30T02:48:44.898Z,5.34
2023-03-30T02:51:28.888Z,5.34
2023-03-30T02:54:26.616Z,5.34
2023-03-30T02:57:18.736Z,5.34
2023-03-30T02:59:56.567Z,5.34
2023-03-30T03:02:29.811Z,5.34
2023-03-30T03:05:07.278Z,5.33
2023-03-30T03:07:49.320Z,5.35
2023-03-30T03:10:17.709Z,5.35
2023-03-30T03:12:46.542Z,5.37
2023-03-30T03:15:16.152Z,5.36
2023-03-30T03:17:58.293Z,5.36
2023-03-30T03:20:29.906Z,5.34
2023-03-30T03:22:58.210Z,5.32
2023-03-30T03:25:26.424Z,5.30
2023-03-30T03:28:04.948Z,5.30
2023-03-30T03:30:46.483Z,5.30
2023-03-30T03:33:19.959Z,5.28
2023-03-30T03:35:59.475Z,5.26
2023-03-30T03:38:28.309Z,5.27
2023-03-30T03:40:58.738Z,5.25
2023-03-30T03:43:27.183Z,5.23
2023-03-30T03:45:55.866Z,5.24
2023-03-30T03:48:24.713Z,5.23
2023-03-30T03:50:55.376Z,5.24
2023-03-30T03:53:25.342Z,5.23
2023-03-30T03:55:55.834Z,5.22
2023-03-30T03:58:25.020Z,5.22
2023-03-30T04:00:58.886Z,5.22
2023-03-30T04:03:26.940Z,5.21
2023-03-30T04:05:57.566Z,5.21
2023-03-30T04:08:30.293Z,5.21
2023-03-30T04:11:08.184Z,5.19
2023-03-30T04:13:55.390Z,5.16
2023-03-30T04:16:38.699Z,5.16
2023-03-30T04:19:27.159Z,5.15
2023-03-30T04:22:05.845Z,5.15
2023-03-30T04:25:14.517Z,5.15
2023-03-30T04:28:12.210Z,5.17
2023-03-30T04:31:10.441Z,5.19
2023-03-30T04:33:57.335Z,5.23
2023-03-30T04:36:43.018Z,5.24
2023-03-30T04:39:38.092Z,5.26
2023-03-30T04:42:29.568Z,5.27
2023-03-30T04:45:25.651Z,5.29
2023-03-30T04:48:25.119Z,5.32
2023-03-30T04:51:13.623Z,5.35
2023-03-30T04:54:01.822Z,5.38
2023-03-30T04:57:05.226Z,5.41
2023-03-30T05:00:07.368Z,5.42
2023-03-30T05:03:01.730Z,5.43
2023-03-30T05:05:57.083Z,5.45
2023-03-30T05:08:51.024Z,5.48
2023-03-30T05:11:22.778Z,5.48
2023-03-30T05:14:00.442Z,5.51
2023-03-30T05:16:56.539Z,5.57
2023-03-30T05:19:43.208Z,5.62
2023-03-30T05:22:34.785Z,5.66
2023-03-30T05:25:21.482Z,5.69
2023-03-30T05:27:57.603Z,5.70
2023-03-30T05:30:39.966Z,5.73
2023-03-30T05:33:26.857Z,5.73
2023-03-30T05:36:17.902Z,5.72
2023-03-30T05:39:10.892Z,5.71
2023-03-30T05:42:02.260Z,5.71
2023-03-30T05:44:39.771Z,5.73
2023-03-30T05:47:39.699Z,5.74
2023-03-30T05:50:43.639Z,5.76
2023-03-30T05:53:20.937Z,5.77
2023-03-30T05:56:02.812Z,5.80
2023-03-30T05:58:51.043Z,5.84
2023-03-30T06:01:37.835Z,5.90
2023-03-30T06:04:09.390Z,5.94
2023-03-30T06:06:37.986Z,5.97
2023-03-30T06:09:10.669Z,6.00
2023-03-30T06:11:38.997Z,6.03
2023-03-30T06:14:21.569Z,6.05
2023-03-30T06:17:15.328Z,6.11
2023-03-30T06:19:45.600Z,6.15
2023-03-30T06:22:14.387Z,6.16
2023-03-30T06:24:54.189Z,6.22
2023-03-30T06:27:22.456Z,6.28
2023-03-30T06:29:52.310Z,6.34
2023-03-30T06:32:20.795Z,6.38
2023-03-30T06:35:10.787Z,6.47
2023-03-30T06:37:39.856Z,6.59
2023-03-30T06:40:12.929Z,6.69
2023-03-30T06:42:43.487Z,6.78
2023-03-30T06:45:21.297Z,6.85
2023-03-30T06:48:13.950Z,6.91
2023-03-30T06:50:53.893Z,6.95
2023-03-30T06:53:41.298Z,7.04
2023-03-30T06:56:22.360Z,7.11
2023-03-30T06:59:07.680Z,7.19
2023-03-30T07:01:45.662Z,7.27
2023-03-30T07:04:49.655Z,7.35
2023-03-30T07:07:25.053Z,7.38
2023-03-30T07:09:53.158Z,7.39
2023-03-30T07:12:21.646Z,7.40
2023-03-30T07:14:50.166Z,7.40
2023-03-30T07:17:18.706Z,7.39
2023-03-30T07:19:46.870Z,7.39
2023-03-30T07:22:15.088Z,7.40
2023-03-30T07:24:44.340Z,7.41
2023-03-30T07:27:12.534Z,7.45
2023-03-30T07:29:41.846Z,7.49
2023-03-30T07:32:10.143Z,7.54
2023-03-30T07:34:38.286Z,7.57
2023-03-30T07:37:07.654Z,7.60
2023-03-30T07:39:36.520Z,7.64
2023-03-30T07:42:06.701Z,7.66
2023-03-30T07:44:37.180Z,7.69
2023-03-30T07:47:07.745Z,7.71
2023-03-30T07:49:38.057Z,7.77
2023-03-30T07:52:06.709Z,7.82
2023-03-30T07:54:43.740Z,7.82
2023-03-30T07:57:19.039Z,7.85
2023-03-30T07:59:47.197Z,7.90
2023-03-30T08:02:23.870Z,7.99
2023-03-30T08:04:54.480Z,8.06
2023-03-30T08:07:36.126Z,8.13
2023-03-30T08:10:12.409Z,8.19
2023-03-30T08:12:41.622Z,8.23
2023-03-30T08:15:11.622Z,8.31
2023-03-30T08:17:39.632Z,8.38
2023-03-30T08:20:10.919Z,8.44
2023-03-30T08:22:41.997Z,8.51
2023-03-30T08:25:11.325Z,8.61
2023-03-30T08:27:39.926Z,8.72
2023-03-30T08:30:12.665Z,8.75
2023-03-30T08:32:41.148Z,8.74
2023-03-30T08:35:11.317Z,8.77
2023-03-30T08:37:39.460Z,8.80
2023-03-30T08:40:12.383Z,8.78
2023-03-30T08:43:03.612Z,8.71
2023-03-30T08:45:39.717Z,8.66
2023-03-30T08:48:17.488Z,8.66
2023-03-30T08:50:53.461Z,8.68
2023-03-30T08:53:21.681Z,8.66
2023-03-30T08:55:56.743Z,8.66
2023-03-30T08:58:32.350Z,8.66
2023-03-30T09:01:12.347Z,8.66
2023-03-30T09:03:50.095Z,8.68
2023-03-30T09:06:25.790Z,8.75
2023-03-30T09:08:54.049Z,8.81
2023-03-30T09:11:32.448Z,8.83
2023-03-30T09:14:04.722Z,8.84
2023-03-30T09:16:40.231Z,8.79
2023-03-30T09:19:14.479Z,8.73
2023-03-30T09:21:42.937Z,8.70
2023-03-30T09:24:15.502Z,8.69
2023-03-30T09:26:50.129Z,8.68
2023-03-30T09:29:22.560Z,8.69
2023-03-30T09:31:55.720Z,8.71
2023-03-30T09:34:27.552Z,8.72
2023-03-30T09:37:00.795Z,8.76
2023-03-30T09:39:32.316Z,8.82
2023-03-30T09:42:13.465Z,8.87
2023-03-30T09:44:47.108Z,8.95
2023-03-30T09:47:23.902Z,9.01
2023-03-30T09:49:57.554Z,9.04
2023-03-30T09:52:27.301Z,9.08
2023-03-30T09:54:56.614Z,9.16
2023-03-30T09:57:27.586Z,9.26
2023-03-30T10:00:26.853Z,9.40
2023-03-30T10:03:24.896Z,9.58
2023-03-30T10:06:04.165Z,9.81
2023-03-30T10:08:32.801Z,10.06
2023-03-30T10:11:05.681Z,10.32
2023-03-30T10:13:37.137Z,10.61
2023-03-30T10:16:08.871Z,10.90
2023-03-30T10:18:42.298Z,11.13
2023-03-30T10:21:19.039Z,11.37
2023-03-30T10:23:58.907Z,11.61
2023-03-30T10:26:29.964Z,11.74
2023-03-30T10:29:02.893Z,11.82
2023-03-30T10:31:33.349Z,11.96
2023-03-30T10:34:03.939Z,12.10
2023-03-30T10:36:34.835Z,12.27
2023-03-30T10:39:11.790Z,12.38
2023-03-30T10:41:41.381Z,12.46
2023-03-30T10:44:22.405Z,12.57
2023-03-30T10:46:53.488Z,12.71
2023-03-30T10:49:38.818Z,12.89
2023-03-30T10:52:14.183Z,13.01
2023-03-30T10:54:46.940Z,13.07
2023-03-30T10:57:17.882Z,13.12
2023-03-30T11:00:14.938Z,13.27
2023-03-30T11:02:54.409Z,13.37
2023-03-30T11:05:31.967Z,13.46
2023-03-30T11:08:04.027Z,13.50
2023-03-30T11:10:37.984Z,13.52
2023-03-30T11:13:08.178Z,13.49
2023-03-30T11:15:43.296Z,13.49
2023-03-30T11:18:17.574Z,13.48
2023-03-30T11:20:51.310Z,13.52
2023-03-30T11:23:55.730Z,13.56
2023-03-30T11:26:35.763Z,13.59
2023-03-30T11:29:12.866Z,13.64
2023-03-30T11:32:03.522Z,13.66
2023-03-30T11:34:55.551Z,13.65
2023-03-30T11:37:32.723Z,13.63
2023-03-30T11:40:13.425Z,13.60
2023-03-30T11:42:53.230Z,13.55
2023-03-30T11:46:22.996Z,13.56
2023-03-30T11:49:15.826Z,13.70
2023-03-30T11:52:05.128Z,13.74
2023-03-30T11:55:06.809Z,13.80
2023-03-30T11:57:40.452Z,13.87
2023-03-30T12:01:07.022Z,13.88
2023-03-30T12:03:42.181Z,13.97
2023-03-30T12:06:27.933Z,14.06
2023-03-30T12:09:22.737Z,14.19
2023-03-30T12:11:57.558Z,14.35
2023-03-30T12:14:40.775Z,14.48
2023-03-30T12:17:28.888Z,14.52
2023-03-30T12:20:05.714Z,14.49
2023-03-30T12:22:41.140Z,14.47
2023-03-30T12:25:28.495Z,14.44
2023-03-30T12:28:10.753Z,14.44
2023-03-30T12:30:45.478Z,14.49
2023-03-30T12:33:18.953Z,14.53
2023-03-30T12:36:01.638Z,14.50
2023-03-30T12:38:38.500Z,14.44
2023-03-30T12:41:17.834Z,14.40
2023-03-30T12:44:02.384Z,14.41
2023-03-30T12:46:42.236Z,14.41
2023-03-30T12:49:26.716Z,14.38
2023-03-30T12:52:10.040Z,14.31
2023-03-30T12:55:11.698Z,14.20
2023-03-30T12:58:06.968Z,14.07
2023-03-30T13:01:03.186Z,13.95
2023-03-30T13:03:38.718Z,13.87
2023-03-30T13:06:13.811Z,13.78
2023-03-30T13:08:42.565Z,13.69
2023-03-30T13:11:15.440Z,13.59
2023-03-30T13:14:25.681Z,13.49
2023-03-30T13:17:18.893Z,13.36
2023-03-30T13:20:10.426Z,13.25
2023-03-30T13:23:22.607Z,13.17
2023-03-30T13:26:02.576Z,13.12
2023-03-30T13:28:54.843Z,13.09
2023-03-30T13:31:35.085Z,13.08
2023-03-30T13:34:14.621Z,13.06
2023-03-30T13:36:52.853Z,13.06
2023-03-30T13:39:29.174Z,13.07
2023-03-30T13:42:13.782Z,13.10
2023-03-30T13:44:57.119Z,13.12
2023-03-30T13:47:53.195Z,13.14
2023-03-30T13:50:26.860Z,13.18
2023-03-30T13:52:58.778Z,13.20
2023-03-30T13:55:45.760Z,13.25
2023-03-30T13:58:18.097Z,13.31
2023-03-30T14:00:50.025Z,13.35
2023-03-30T14:03:40.877Z,13.40
2023-03-30T14:06:17.240Z,13.45
2023-03-30T14:08:47.969Z,13.47
2023-03-30T14:11:20.422Z,13.49
2023-03-30T14:13:52.171Z,13.50
2023-03-30T14:16:25.724Z,13.50
2023-03-30T14:19:07.637Z,13.47
2023-03-30T14:21:38.088Z,13.44
2023-03-30T14:24:09.931Z,13.40
2023-03-30T14:26:40.868Z,13.38
2023-03-30T14:29:24.646Z,13.38
2023-03-30T14:32:09.249Z,13.35
2023-03-30T14:34:39.487Z,13.33
2023-03-30T14:37:11.426Z,13.31
2023-03-30T14:39:43.095Z,13.30
2023-03-30T14:42:18.794Z,13.26
2023-03-30T14:44:49.237Z,13.24
2023-03-30T14:47:21.575Z,13.21
2023-03-30T14:49:51.547Z,13.18
2023-03-30T14:52:21.804Z,13.14
2023-03-30T14:55:05.295Z,13.09
2023-03-30T14:57:38.606Z,13.06
2023-03-30T15:00:20.256Z,13.04
2023-03-30T15:02:51.421Z,13.01
2023-03-30T15:05:20.955Z,12.98
2023-03-30T15:07:50.588Z,12.96
2023-03-30T15:10:24.634Z,12.90
2023-03-30T15:12:55.634Z,12.85
2023-03-30T15:15:27.951Z,12.80
2023-03-30T15:17:56.700Z,12.75
2023-03-30T15:20:27.883Z,12.71
2023-03-30T15:22:56.728Z,12.67
2023-03-30T15:25:31.223Z,12.61
2023-03-30T15:28:03.279Z,12.54
2023-03-30T15:30:35.143Z,12.46
2023-03-30T15:33:03.365Z,12.38
2023-03-30T15:35:33.300Z,12.31
2023-03-30T15:38:02.945Z,12.26
2023-03-30T15:40:37.516Z,12.22
2023-03-30T15:43:18.219Z,12.19
2023-03-30T15:45:50.559Z,12.14
2023-03-30T15:48:21.714Z,12.09
2023-03-30T15:50:55.931Z,12.06
2023-03-30T15:53:36.073Z,12.04
2023-03-30T15:56:07.597Z,12.00
2023-03-30T15:58:35.639Z,11.97
2023-03-30T16:01:04.384Z,11.93
2023-03-30T16:03:39.637Z,11.89
2023-03-30T16:06:12.939Z,11.83
2023-03-30T16:08:43.711Z,11.79
2023-03-30T16:11:14.414Z,11.76
2023-03-30T16:13:44.903Z,11.72
2023-03-30T16:16:13.698Z,11.67
2023-03-30T16:18:42.940Z,11.64
2023-03-30T16:21:27.002Z,11.62
2023-03-30T16:23:54.974Z,11.59
2023-03-30T16:26:23.036Z,11.57
2023-03-30T16:28:54.875Z,11.54
2023-03-30T16:31:24.734Z,11.53
2023-03-30T16:33:53.118Z,11.50
2023-03-30T16:36:27.201Z,11.49
2023-03-30T16:38:56.635Z,11.48
2023-03-30T16:41:25.527Z,11.46
2023-03-30T16:43:53.676Z,11.44
2023-03-30T16:46:22.321Z,11.42
2023-03-30T16:48:57.233Z,11.41
2023-03-30T16:51:25.539Z,11.38
2023-03-30T16:53:53.546Z,11.36
2023-03-30T16:56:22.022Z,11.35
2023-03-30T16:58:50.090Z,11.34
2023-03-30T17:01:18.232Z,11.32
2023-03-30T17:04:02.481Z,11.32
2023-03-30T17:06:31.639Z,11.30
2023-03-30T17:09:02.994Z,11.28
2023-03-30T17:11:31.231Z,11.25
2023-03-30T17:13:59.217Z,11.21
2023-03-30T17:16:30.416Z,11.17
2023-03-30T17:18:59.498Z,11.14
2023-03-30T17:21:27.552Z,11.12
2023-03-30T17:23:58.407Z,11.09
2023-03-30T17:26:26.960Z,11.06
2023-03-30T17:28:58.294Z,11.05
2023-03-30T17:31:26.585Z,11.03
2023-03-30T17:33:59.103Z,11.02
2023-03-30T17:36:27.912Z,10.98
2023-03-30T17:38:56.199Z,10.96
2023-03-30T17:41:24.434Z,10.94
2023-03-30T17:43:52.568Z,10.93
2023-03-30T17:46:20.670Z,10.92
2023-03-30T17:48:50.507Z,10.91
2023-03-30T17:51:18.503Z,10.90
2023-03-30T17:53:46.456Z,10.89
2023-03-30T17:56:14.525Z,10.90
2023-03-30T17:58:46.108Z,10.92
2023-03-30T18:01:20.253Z,10.92
2023-03-30T18:03:48.786Z,10.93
2023-03-30T18:06:17.702Z,10.94
2023-03-30T18:08:46.033Z,10.96
2023-03-30T18:11:14.564Z,10.98
2023-03-30T18:13:42.912Z,10.99
2023-03-30T18:16:12.587Z,10.98
2023-03-30T18:18:40.820Z,10.98
2023-03-30T18:21:10.769Z,10.97
2023-03-30T18:23:38.882Z,10.95
2023-03-30T18:26:11.829Z,10.95
2023-03-30T18:28:42.845Z,10.92
2023-03-30T18:31:11.350Z,10.92
2023-03-30T18:33:40.923Z,10.92
2023-03-30T18:36:11.950Z,10.92
2023-03-30T18:38:40.345Z,10.91
2023-03-30T18:41:12.838Z,10.92
2023-03-30T18:43:41.285Z,10.92
2023-03-30T18:46:12.784Z,10.93
2023-03-30T18:48:42.548Z,10.94
2023-03-30T18:51:11.557Z,10.94
2023-03-30T18:53:40.966Z,10.93
2023-03-30T18:56:12.927Z,10.91
2023-03-30T18:58:42.252Z,10.91
2023-03-30T19:01:13.192Z,10.91
2023-03-30T19:03:42.146Z,10.89
2023-03-30T19:06:15.809Z,10.85
2023-03-30T19:08:44.125Z,10.84
2023-03-30T19:11:17.431Z,10.81
2023-03-30T19:13:46.894Z,10.79
2023-03-30T19:16:21.545Z,10.78
2023-03-30T19:18:49.799Z,10.77
2023-03-30T19:21:18.243Z,10.76
2023-03-30T19:23:49.842Z,10.75
2023-03-30T19:26:20.331Z,10.72
2023-03-30T19:28:48.428Z,10.70
2023-03-30T19:31:25.499Z,10.67
2023-03-30T19:33:54.978Z,10.64
2023-03-30T19:36:25.207Z,10.61
2023-03-30T19:38:53.857Z,10.56
2023-03-30T19:41:22.712Z,10.51
2023-03-30T19:43:55.319Z,10.46
2023-03-30T19:46:23.841Z,10.44
2023-03-30T19:48:52.965Z,10.40
2023-03-30T19:51:21.244Z,10.39
2023-03-30T19:53:49.321Z,10.36
2023-03-30T19:56:17.743Z,10.34
2023-03-30T19:58:46.620Z,10.33
2023-03-30T20:01:15.148Z,10.32
2023-03-30T20:03:44.405Z,10.30
2023-03-30T20:06:13.438Z,10.28
2023-03-30T20:08:43.960Z,10.27
2023-03-30T20:11:12.296Z,10.26
2023-03-30T20:13:45.030Z,10.26
2023-03-30T20:16:19.437Z,10.25
2023-03-30T20:18:49.944Z,10.23
2023-03-30T20:21:19.351Z,10.23
2023-03-30T20:23:47.805Z,10.22
2023-03-30T20:26:18.845Z,10.21
2023-03-30T20:28:50.072Z,10.20
2023-03-30T20:31:18.767Z,10.19
2023-03-30T20:33:47.594Z,10.19
2023-03-30T20:36:16.314Z,10.19
2023-03-30T20:38:45.670Z,10.19
2023-03-30T20:41:14.558Z,10.20
2023-03-30T20:43:56.440Z,10.20
2023-03-30T20:46:34.904Z,10.21
2023-03-30T20:49:03.417Z,10.20
2023-03-30T20:51:32.052Z,10.22
2023-03-30T20:54:00.326Z,10.23
2023-03-30T20:56:28.418Z,10.23
2023-03-30T20:58:56.696Z,10.23
2023-03-30T21:01:28.621Z,10.22
2023-03-30T21:03:58.312Z,10.23
2023-03-30T21:06:29.112Z,10.23
2023-03-30T21:09:01.252Z,10.23
2023-03-30T21:11:32.956Z,10.23
2023-03-30T21:14:01.692Z,10.24
2023-03-30T21:16:29.905Z,10.25
2023-03-30T21:18:58.724Z,10.25
2023-03-30T21:21:28.178Z,10.26
2023-03-30T21:23:56.711Z,10.25
2023-03-30T21:26:25.689Z,10.26
2023-03-30T21:28:53.980Z,10.27
2023-03-30T21:31:22.251Z,10.29
2023-03-30T21:33:50.322Z,10.31
2023-03-30T21:36:18.569Z,10.33
2023-03-30T21:38:46.815Z,10.34
2023-03-30T21:41:16.305Z,10.36
2023-03-30T21:43:46.752Z,10.36
2023-03-30T21:46:17.282Z,10.36
2023-03-30T21:48:46.187Z,10.36
2023-03-30T21:51:16.830Z,10.36
2023-03-30T21:53:47.808Z,10.37
2023-03-30T21:56:16.895Z,10.37
2023-03-30T21:58:44.877Z,10.38
2023-03-30T22:01:13.133Z,10.39
2023-03-30T22:03:42.312Z,10.39
2023-03-30T22:06:12.628Z,10.40
2023-03-30T22:08:40.729Z,10.42
2023-03-30T22:11:11.568Z,10.42
2023-03-30T22:13:39.620Z,10.44
2023-03-30T22:16:12.003Z,10.46
2023-03-30T22:18:40.399Z,10.47
2023-03-30T22:21:11.633Z,10.48
2023-03-30T22:23:39.669Z,10.50
2023-03-30T22:26:08.083Z,10.51
2023-03-30T22:28:36.649Z,10.52
2023-03-30T22:31:07.786Z,10.53
2023-03-30T22:33:36.186Z,10.54
2023-03-30T22:36:06.533Z,10.54
2023-03-30T22:38:35.029Z,10.54
2023-03-30T22:41:07.350Z,10.54
2023-03-30T22:43:36.382Z,10.55
2023-03-30T22:46:05.271Z,10.54
2023-03-30T22:48:34.870Z,10.55
2023-03-30T22:51:03.424Z,10.55
2023-03-30T22:53:31.737Z,10.55
2023-03-30T22:56:00.344Z,10.55
2023-03-30T22:58:28.307Z,10.56
2023-03-30T23:01:01.228Z,10.56
2023-03-30T23:03:29.522Z,10.56
2023-03-30T23:06:00.202Z,10.58
2023-03-30T23:08:31.532Z,10.57
2023-03-30T23:11:04.233Z,10.57
2023-03-30T23:13:36.584Z,10.59
2023-03-30T23:16:05.685Z,10.60
2023-03-30T23:18:34.572Z,10.60
2023-03-30T23:21:05.580Z,10.61
2023-03-30T23:23:33.899Z,10.62
2023-03-30T23:26:07.489Z,10.62
2023-03-30T23:28:36.786Z,10.61
2023-03-30T23:31:08.523Z,10.61
2023-03-30T23:33:36.695Z,10.62
2023-03-30T23:36:06.096Z,10.62
2023-03-30T23:38:34.442Z,10.62
2023-03-30T23:41:02.477Z,10.61
2023-03-30T23:43:30.447Z,10.62
2023-03-30T23:45:58.607Z,10.62
2023-03-30T23:48:26.758Z,10.63
2023-03-30T23:50:55.746Z,10.64
2023-03-30T23:53:25.625Z,10.64
2023-03-30T23:55:53.852Z,10.63
2023-03-30T23:58:22.214Z,10.61
